Madera Canyon, Arizona
Current Conditions -  °F | °C
As of 7:53 AM on Monday 22 Dec 2014 (Local Time) from KTUS Reporting Station
Clear Clear  
Wind Chill: 38°   Ceiling: Unl
Heat Index: 42°   Visibility: 10mi
Dew Point: 36°   Wind: 7mph
Humidity: 79%   Direction: 150°SSE
Pressure: 30.05"   Gusts: NA
Location:  31.8307°N, 111.034°W
Report Text: KTUS 221453Z 15006KT 10SM CLR 06/02 A3005 RMK AO2 SLP164 T00560022 53002
Loading
Personal Weather Stations






























Interactive Weather Map New forecast layout! Learn more

10-Day Weather Forecast

Advertisements
Track Severe Weather on mobile